createdAt,value
2023-01-27T00:00:21.035Z,27.03
2023-01-27T00:02:47.503Z,25.47
2023-01-27T00:05:14.959Z,24.07
2023-01-27T00:07:50.830Z,23.30
2023-01-27T00:10:19.045Z,24.07
2023-01-27T00:13:04.618Z,23.20
2023-01-27T00:15:31.908Z,22.30
2023-01-27T00:17:58.185Z,21.17
2023-01-27T00:20:43.222Z,20.97
2023-01-27T00:23:35.765Z,26.67
2023-01-27T00:26:06.213Z,24.73
2023-01-27T00:28:33.181Z,20.77
2023-01-27T00:30:59.760Z,22.40
2023-01-27T00:33:27.192Z,21.33
2023-01-27T00:36:04.271Z,21.83
2023-01-27T00:38:32.045Z,20.57
2023-01-27T00:41:19.500Z,21.57
2023-01-27T00:43:46.865Z,19.87
2023-01-27T00:46:13.684Z,22.63
2023-01-27T00:48:40.282Z,21.77
2023-01-27T00:51:06.558Z,22.73
2023-01-27T00:53:51.663Z,18.63
2023-01-27T00:56:36.933Z,19.83
2023-01-27T00:59:12.208Z,17.60
2023-01-27T01:01:39.497Z,17.90
2023-01-27T01:04:05.904Z,15.73
2023-01-27T01:06:32.208Z,16.90
2023-01-27T01:08:58.639Z,16.63
2023-01-27T01:11:25.023Z,20.87
2023-01-27T01:13:52.634Z,14.40
2023-01-27T01:16:20.946Z,21.53
2023-01-27T01:18:47.575Z,17.93
2023-01-27T01:21:13.838Z,14.70
2023-01-27T01:23:43.932Z,14.60
2023-01-27T01:26:11.424Z,15.83
2023-01-27T01:28:37.943Z,13.20
2023-01-27T01:31:08.981Z,15.80
2023-01-27T01:33:35.882Z,14.13
2023-01-27T01:36:10.053Z,15.77
2023-01-27T01:38:36.854Z,19.70
2023-01-27T01:41:03.464Z,17.53
2023-01-27T01:43:29.734Z,19.20
2023-01-27T01:45:57.411Z,18.63
2023-01-27T01:48:42.589Z,17.70
2023-01-27T01:51:21.286Z,21.23
2023-01-27T01:53:51.326Z,25.80
2023-01-27T01:56:20.648Z,22.00
2023-01-27T01:58:48.096Z,20.27
2023-01-27T02:01:15.848Z,19.57
2023-01-27T02:03:44.051Z,18.53
2023-01-27T02:06:11.546Z,19.63
2023-01-27T02:08:42.798Z,19.47
2023-01-27T02:11:09.653Z,21.27
2023-01-27T02:13:36.507Z,20.40
2023-01-27T02:16:02.892Z,17.60
2023-01-27T02:18:29.673Z,20.63
2023-01-27T02:20:56.741Z,22.80
2023-01-27T02:23:41.714Z,19.73
2023-01-27T02:26:11.048Z,21.43
2023-01-27T02:28:37.401Z,25.27
2023-01-27T02:31:03.913Z,17.17
2023-01-27T02:33:30.264Z,22.63
2023-01-27T02:36:05.718Z,23.23
2023-01-27T02:38:36.270Z,20.30
2023-01-27T02:41:11.812Z,26.10
2023-01-27T02:43:38.115Z,22.67
2023-01-27T02:46:04.552Z,22.53
2023-01-27T02:48:30.905Z,22.00
2023-01-27T02:50:57.232Z,22.10
2023-01-27T02:53:23.545Z,21.03
2023-01-27T02:55:49.791Z,25.27
2023-01-27T02:58:16.410Z,19.50
2023-01-27T03:00:43.240Z,20.43
2023-01-27T03:03:09.540Z,27.33
2023-01-27T03:05:35.795Z,21.43
2023-01-27T03:08:02.183Z,22.80
2023-01-27T03:10:28.442Z,21.80
2023-01-27T03:13:13.067Z,24.73
2023-01-27T03:15:58.143Z,24.83
2023-01-27T03:18:24.579Z,25.77
2023-01-27T03:20:50.897Z,24.23
2023-01-27T03:23:18.914Z,25.10
2023-01-27T03:25:46.213Z,27.03
2023-01-27T03:28:12.608Z,23.93
2023-01-27T03:30:39.280Z,23.30
2023-01-27T03:33:07.311Z,21.47
2023-01-27T03:35:38.801Z,18.80
2023-01-27T03:38:31.243Z,17.33
2023-01-27T03:41:16.043Z,12.93
2023-01-27T03:44:00.907Z,10.87
2023-01-27T03:46:27.250Z,13.20
2023-01-27T03:48:54.611Z,8.77
2023-01-27T03:51:22.305Z,10.07
2023-01-27T03:53:49.024Z,9.40
2023-01-27T03:56:15.884Z,9.43
2023-01-27T03:58:42.473Z,8.67
2023-01-27T04:01:13.236Z,7.03
2023-01-27T04:03:58.321Z,7.70
2023-01-27T04:06:44.838Z,6.50
2023-01-27T04:09:11.828Z,6.53
2023-01-27T04:11:56.631Z,7.07
2023-01-27T04:14:24.297Z,6.83
2023-01-27T04:16:51.627Z,8.90
2023-01-27T04:19:18.197Z,8.70
2023-01-27T04:21:44.502Z,7.13
2023-01-27T04:24:16.742Z,8.33
2023-01-27T04:26:43.823Z,8.87
2023-01-27T04:29:10.197Z,9.97
2023-01-27T04:31:36.432Z,10.37
2023-01-27T04:34:02.737Z,9.23
2023-01-27T04:36:29.152Z,8.03
2023-01-27T04:38:55.465Z,8.40
2023-01-27T04:41:21.756Z,11.03
2023-01-27T04:43:48.120Z,9.03
2023-01-27T04:46:14.427Z,8.93
2023-01-27T04:48:40.687Z,9.40
2023-01-27T04:51:06.968Z,9.43
2023-01-27T04:53:33.265Z,10.43
2023-01-27T04:56:04.307Z,11.33
2023-01-27T04:58:30.689Z,11.73
2023-01-27T05:00:56.919Z,11.63
2023-01-27T05:03:23.159Z,9.93
2023-01-27T05:05:49.544Z,12.23
2023-01-27T05:08:15.864Z,14.57
2023-01-27T05:10:45.241Z,12.57
2023-01-27T05:13:11.666Z,14.23
2023-01-27T05:15:37.909Z,17.93
2023-01-27T05:18:04.179Z,15.70
2023-01-27T05:20:31.650Z,17.07
2023-01-27T05:23:17.916Z,18.10
2023-01-27T05:25:44.460Z,14.17
2023-01-27T05:28:11.271Z,14.07
2023-01-27T05:30:37.765Z,12.70
2023-01-27T05:33:04.289Z,14.33
2023-01-27T05:35:32.587Z,18.50
2023-01-27T05:37:58.920Z,13.70
2023-01-27T05:40:25.324Z,13.13
2023-01-27T05:43:10.027Z,13.33
2023-01-27T05:45:36.294Z,18.27
2023-01-27T05:48:02.562Z,13.63
2023-01-27T05:50:28.821Z,14.40
2023-01-27T05:52:55.129Z,13.27
2023-01-27T05:55:21.369Z,14.97
2023-01-27T05:57:47.707Z,11.97
2023-01-27T06:00:14.403Z,11.77
2023-01-27T06:02:40.747Z,12.47
2023-01-27T06:05:07.161Z,14.13
2023-01-27T06:07:51.299Z,11.80
2023-01-27T06:10:17.797Z,11.67
2023-01-27T06:12:44.048Z,15.47
2023-01-27T06:15:10.648Z,12.67
2023-01-27T06:17:37.012Z,15.33
2023-01-27T06:20:03.518Z,14.67
2023-01-27T06:22:29.764Z,16.03
2023-01-27T06:24:56.015Z,17.77
2023-01-27T06:27:22.277Z,15.60
2023-01-27T06:29:48.532Z,15.97
2023-01-27T06:32:14.752Z,14.00
2023-01-27T06:34:41.061Z,14.70
2023-01-27T06:37:07.280Z,15.47
2023-01-27T06:39:33.596Z,36.60
2023-01-27T06:41:59.920Z,34.70
2023-01-27T06:44:26.193Z,15.63
2023-01-27T06:46:53.404Z,14.20
2023-01-27T06:49:19.715Z,15.10
2023-01-27T06:51:45.938Z,16.47
2023-01-27T06:54:12.219Z,14.87
2023-01-27T06:56:38.460Z,16.20
2023-01-27T06:59:04.961Z,13.77
2023-01-27T07:01:31.263Z,14.67
2023-01-27T07:03:57.537Z,15.57
2023-01-27T07:06:23.761Z,15.73
2023-01-27T07:08:51.021Z,13.07
2023-01-27T07:11:17.316Z,19.13
2023-01-27T07:13:43.549Z,26.33
2023-01-27T07:16:09.968Z,20.80
2023-01-27T07:18:36.225Z,15.93
2023-01-27T07:21:04.104Z,15.93
2023-01-27T07:23:30.349Z,18.10
2023-01-27T07:25:56.677Z,16.57
2023-01-27T07:28:23.274Z,14.90
2023-01-27T07:30:49.717Z,15.47
2023-01-27T07:33:16.313Z,61.10
2023-01-27T07:35:42.921Z,30.67
2023-01-27T07:38:09.706Z,16.73
2023-01-27T07:40:36.221Z,19.20
2023-01-27T07:43:02.568Z,16.80
2023-01-27T07:45:29.148Z,15.20
2023-01-27T07:48:02.487Z,16.00
2023-01-27T07:50:29.126Z,17.83
2023-01-27T07:53:14.323Z,17.70
2023-01-27T07:55:40.723Z,18.33
2023-01-27T07:58:07.039Z,17.10
2023-01-27T08:00:33.492Z,18.60
2023-01-27T08:03:22.956Z,17.37
2023-01-27T08:05:49.885Z,18.13
2023-01-27T08:08:16.229Z,28.97
2023-01-27T08:10:47.022Z,22.10
2023-01-27T08:13:13.331Z,18.80
2023-01-27T08:15:39.643Z,17.52
2023-01-27T08:18:06.107Z,15.57
2023-01-27T08:20:32.514Z,15.73
2023-01-27T08:22:58.795Z,15.00
2023-01-27T08:25:25.198Z,15.17
2023-01-27T08:27:52.522Z,13.60
2023-01-27T08:30:19.321Z,31.97
2023-01-27T08:32:45.626Z,14.43
2023-01-27T08:35:11.864Z,12.60
2023-01-27T08:37:38.159Z,14.27
2023-01-27T08:40:07.408Z,12.90
2023-01-27T08:42:33.633Z,13.43
2023-01-27T08:45:00.475Z,15.17
2023-01-27T08:47:26.742Z,14.80
2023-01-27T08:49:54.335Z,13.83
2023-01-27T08:52:22.170Z,13.63
2023-01-27T08:54:48.403Z,14.40
2023-01-27T08:57:14.800Z,14.40
2023-01-27T08:59:41.099Z,20.80
2023-01-27T09:02:07.332Z,16.47
2023-01-27T09:04:33.803Z,13.00
2023-01-27T09:07:00.294Z,13.60
2023-01-27T09:09:26.606Z,13.50
2023-01-27T09:11:52.896Z,13.53
2023-01-27T09:14:20.172Z,14.50
2023-01-27T09:16:46.523Z,13.77
2023-01-27T09:19:13.430Z,14.40
2023-01-27T09:21:39.726Z,13.53
2023-01-27T09:24:06.216Z,13.03
2023-01-27T09:26:32.524Z,14.20
2023-01-27T09:28:58.942Z,14.30
2023-01-27T09:31:25.330Z,14.00
2023-01-27T09:33:51.588Z,14.03
2023-01-27T09:36:18.899Z,14.13
2023-01-27T09:38:49.524Z,12.87
2023-01-27T09:41:48.257Z,13.57
2023-01-27T09:44:32.977Z,12.47
2023-01-27T09:47:02.565Z,13.10
2023-01-27T09:49:32.548Z,12.17
2023-01-27T09:51:58.903Z,13.30
2023-01-27T09:54:34.471Z,15.20
2023-01-27T09:57:12.592Z,20.67
2023-01-27T09:59:57.004Z,13.27
2023-01-27T10:02:38.860Z,11.67
2023-01-27T10:05:11.039Z,11.47
2023-01-27T10:07:59.434Z,10.20
2023-01-27T10:10:25.649Z,9.73
2023-01-27T10:13:04.393Z,10.37
2023-01-27T10:16:08.152Z,9.20
2023-01-27T10:18:43.749Z,8.03
2023-01-27T10:21:25.355Z,11.03
2023-01-27T10:24:00.863Z,8.83
2023-01-27T10:26:40.963Z,8.93
2023-01-27T10:29:18.827Z,10.63
2023-01-27T10:31:53.486Z,12.50
2023-01-27T10:34:34.688Z,9.97
2023-01-27T10:37:10.087Z,10.07
2023-01-27T10:39:41.255Z,10.67
2023-01-27T10:42:28.108Z,10.37
2023-01-27T10:45:00.589Z,8.77
2023-01-27T10:47:29.897Z,5.80
2023-01-27T10:49:58.373Z,4.40
2023-01-27T10:52:27.232Z,35.80
2023-01-27T10:54:57.936Z,7.53
2023-01-27T10:57:31.898Z,3.87
2023-01-27T11:00:35.724Z,3.13
2023-01-27T11:03:02.949Z,3.00
2023-01-27T11:05:41.334Z,2.73
2023-01-27T11:08:12.376Z,2.83
2023-01-27T11:11:17.433Z,3.83
2023-01-27T11:13:43.919Z,2.43
2023-01-27T11:16:14.781Z,3.20
2023-01-27T11:18:41.624Z,3.17
2023-01-27T11:21:15.158Z,3.07
2023-01-27T11:23:43.337Z,3.80
2023-01-27T11:26:22.082Z,3.37
2023-01-27T11:29:08.558Z,4.67
2023-01-27T11:31:50.214Z,3.40
2023-01-27T11:34:36.948Z,2.37
2023-01-27T11:37:18.068Z,2.20
2023-01-27T11:39:44.304Z,2.60
2023-01-27T11:42:10.932Z,3.50
2023-01-27T11:44:37.536Z,2.70
2023-01-27T11:47:06.221Z,4.20
2023-01-27T11:49:36.714Z,2.50
2023-01-27T11:52:09.911Z,2.50
2023-01-27T11:54:42.021Z,2.83
2023-01-27T11:57:15.661Z,2.77
2023-01-27T11:59:42.413Z,2.87
2023-01-27T12:02:08.702Z,2.93
2023-01-27T12:04:35.007Z,3.00
2023-01-27T12:07:02.859Z,3.20
2023-01-27T12:09:32.117Z,3.00
2023-01-27T12:12:13.652Z,2.80
2023-01-27T12:14:50.185Z,2.23
2023-01-27T12:17:23.076Z,2.13
2023-01-27T12:19:49.376Z,2.10
2023-01-27T12:22:21.421Z,2.63
2023-01-27T12:24:49.614Z,2.50
2023-01-27T12:27:20.820Z,2.67
2023-01-27T12:30:04.760Z,2.03
2023-01-27T12:32:49.679Z,2.30
2023-01-27T12:35:21.015Z,2.23
2023-01-27T12:37:48.210Z,1.60
2023-01-27T12:40:21.471Z,28.47
2023-01-27T12:42:47.782Z,6.97
2023-01-27T12:45:18.746Z,2.23
2023-01-27T12:47:55.979Z,2.97
2023-01-27T12:50:23.859Z,1.80
2023-01-27T12:52:54.240Z,1.40
2023-01-27T12:55:27.842Z,4.77
2023-01-27T12:57:54.189Z,1.70
2023-01-27T13:00:20.774Z,1.20
2023-01-27T13:02:48.150Z,1.60
2023-01-27T13:05:16.428Z,1.53
2023-01-27T13:07:47.180Z,1.50
2023-01-27T13:10:18.970Z,1.20
2023-01-27T13:12:52.300Z,1.23
2023-01-27T13:15:20.514Z,1.40
2023-01-27T13:17:48.340Z,19.13
2023-01-27T13:20:26.050Z,2.00
2023-01-27T13:23:06.098Z,1.97
2023-01-27T13:25:41.261Z,1.50
2023-01-27T13:28:08.785Z,1.40
2023-01-27T13:30:37.596Z,1.03
2023-01-27T13:33:30.275Z,1.03
2023-01-27T13:36:12.832Z,1.07
2023-01-27T13:39:02.453Z,0.80
2023-01-27T13:41:32.533Z,0.80
2023-01-27T13:44:17.376Z,0.90
2023-01-27T13:46:44.704Z,1.23
2023-01-27T13:49:17.087Z,2.10
2023-01-27T13:51:43.309Z,2.50
2023-01-27T13:54:12.114Z,2.00
2023-01-27T13:56:51.040Z,1.67
2023-01-27T13:59:17.284Z,2.77
2023-01-27T14:01:49.959Z,3.23
2023-01-27T14:04:35.125Z,1.50
2023-01-27T14:07:10.529Z,1.40
2023-01-27T14:09:38.661Z,1.63
2023-01-27T14:12:09.082Z,1.90
2023-01-27T14:14:58.478Z,2.57
2023-01-27T14:17:44.109Z,2.83
2023-01-27T14:20:26.097Z,2.70
2023-01-27T14:23:04.868Z,2.17
2023-01-27T14:25:48.440Z,2.97
2023-01-27T14:28:33.453Z,2.33
2023-01-27T14:31:10.725Z,2.17
2023-01-27T14:33:56.071Z,2.07
2023-01-27T14:36:29.435Z,2.30
2023-01-27T14:38:55.669Z,3.87
2023-01-27T14:41:24.980Z,8.30
2023-01-27T14:44:00.330Z,4.13
2023-01-27T14:46:32.684Z,1.80
2023-01-27T14:49:12.185Z,1.77
2023-01-27T14:51:50.696Z,2.70
2023-01-27T14:54:28.927Z,1.97
2023-01-27T14:56:58.173Z,1.73
2023-01-27T14:59:27.499Z,3.03
2023-01-27T15:02:17.614Z,4.47
2023-01-27T15:04:46.987Z,2.63
2023-01-27T15:07:16.404Z,2.17
2023-01-27T15:09:42.653Z,2.67
2023-01-27T15:12:09.021Z,2.00
2023-01-27T15:14:38.279Z,4.17
2023-01-27T15:17:23.310Z,2.30
2023-01-27T15:20:06.524Z,1.77
2023-01-27T15:22:52.092Z,2.77
2023-01-27T15:25:30.906Z,1.80
2023-01-27T15:27:57.814Z,1.93
2023-01-27T15:30:31.831Z,2.00
2023-01-27T15:32:58.174Z,3.53
2023-01-27T15:35:37.919Z,2.70
2023-01-27T15:38:10.236Z,2.30
2023-01-27T15:40:55.313Z,3.23
2023-01-27T15:43:23.289Z,3.17
2023-01-27T15:45:54.008Z,2.50
2023-01-27T15:48:22.661Z,2.40
2023-01-27T15:50:56.449Z,3.37
2023-01-27T15:53:27.511Z,2.20
2023-01-27T15:55:55.572Z,15.67
2023-01-27T15:58:37.931Z,7.07
2023-01-27T16:01:07.172Z,4.70
2023-01-27T16:03:35.821Z,3.30
2023-01-27T16:06:08.878Z,3.20
2023-01-27T16:08:54.166Z,2.80
2023-01-27T16:11:37.527Z,2.93
2023-01-27T16:14:13.591Z,3.67
2023-01-27T16:16:40.805Z,4.77
2023-01-27T16:19:11.099Z,4.17
2023-01-27T16:21:41.768Z,2.33
2023-01-27T16:24:13.854Z,2.50
2023-01-27T16:26:40.203Z,2.47
2023-01-27T16:29:12.623Z,2.90
2023-01-27T16:31:40.664Z,2.67
2023-01-27T16:34:15.867Z,3.00
2023-01-27T16:36:42.257Z,2.73
2023-01-27T16:39:18.310Z,3.03
2023-01-27T16:41:52.198Z,2.80
2023-01-27T16:44:21.117Z,2.70
2023-01-27T16:46:55.631Z,4.30
2023-01-27T16:49:28.571Z,3.23
2023-01-27T16:51:56.102Z,2.30
2023-01-27T16:54:32.661Z,2.20
2023-01-27T16:56:58.991Z,2.40
2023-01-27T16:59:27.296Z,2.97
2023-01-27T17:01:59.740Z,2.53
2023-01-27T17:04:27.605Z,2.50
2023-01-27T17:06:56.684Z,2.90
2023-01-27T17:09:23.076Z,2.80
2023-01-27T17:11:49.525Z,2.70
2023-01-27T17:14:29.996Z,2.80
2023-01-27T17:16:57.925Z,5.37
2023-01-27T17:19:27.793Z,3.50
2023-01-27T17:21:58.435Z,4.03
2023-01-27T17:24:24.711Z,4.50
2023-01-27T17:27:05.770Z,4.83
2023-01-27T17:29:36.839Z,5.37
2023-01-27T17:32:04.213Z,4.77
2023-01-27T17:34:30.653Z,4.30
2023-01-27T17:37:15.969Z,17.63
2023-01-27T17:39:42.584Z,11.97
2023-01-27T17:42:13.389Z,9.97
2023-01-27T17:44:39.767Z,6.10
2023-01-27T17:47:06.254Z,5.83
2023-01-27T17:49:32.627Z,4.27
2023-01-27T17:52:00.117Z,4.67
2023-01-27T17:54:30.107Z,4.27
2023-01-27T17:57:00.782Z,4.50
2023-01-27T17:59:28.166Z,4.83
2023-01-27T18:01:55.180Z,4.73
2023-01-27T18:04:22.332Z,5.00
2023-01-27T18:06:49.887Z,5.50
2023-01-27T18:09:20.750Z,5.53
2023-01-27T18:11:51.552Z,5.67
2023-01-27T18:14:18.244Z,6.03
2023-01-27T18:16:44.592Z,6.43
2023-01-27T18:19:22.373Z,7.13
2023-01-27T18:21:49.065Z,6.43
2023-01-27T18:24:19.964Z,7.40
2023-01-27T18:26:46.281Z,8.20
2023-01-27T18:29:12.488Z,7.60
2023-01-27T18:31:45.122Z,8.47
2023-01-27T18:34:20.405Z,6.87
2023-01-27T18:36:56.083Z,6.80
2023-01-27T18:39:32.655Z,6.10
2023-01-27T18:41:59.303Z,6.73
2023-01-27T18:44:34.130Z,14.40
2023-01-27T18:47:18.567Z,8.70
2023-01-27T18:49:44.857Z,6.13
2023-01-27T18:52:13.034Z,5.60
2023-01-27T18:54:39.360Z,6.10
2023-01-27T18:57:05.681Z,5.27
2023-01-27T18:59:32.027Z,5.33
2023-01-27T19:01:58.526Z,5.23
2023-01-27T19:04:25.252Z,5.97
2023-01-27T19:06:51.619Z,5.23
2023-01-27T19:09:18.039Z,5.70
2023-01-27T19:11:44.658Z,6.17
2023-01-27T19:14:11.061Z,7.87
2023-01-27T19:16:37.426Z,8.27
2023-01-27T19:19:03.707Z,8.10
2023-01-27T19:21:30.265Z,7.77
2023-01-27T19:23:56.684Z,8.40
2023-01-27T19:26:23.359Z,8.07
2023-01-27T19:28:54.208Z,9.33
2023-01-27T19:31:21.011Z,10.40
2023-01-27T19:33:47.476Z,9.60
2023-01-27T19:36:24.966Z,8.33
2023-01-27T19:39:11.519Z,8.63
2023-01-27T19:41:37.746Z,9.47
2023-01-27T19:44:04.044Z,9.07
2023-01-27T19:46:31.040Z,9.23
2023-01-27T19:48:57.533Z,8.47
2023-01-27T19:51:24.170Z,9.70
2023-01-27T19:53:50.810Z,9.80
2023-01-27T19:56:18.905Z,9.97
2023-01-27T19:58:47.129Z,11.50
2023-01-27T20:01:13.450Z,10.67
2023-01-27T20:03:39.908Z,11.43
2023-01-27T20:06:21.160Z,14.50
2023-01-27T20:09:06.064Z,11.47
2023-01-27T20:11:34.081Z,12.63
2023-01-27T20:14:01.030Z,11.90
2023-01-27T20:16:27.448Z,12.83
2023-01-27T20:18:53.739Z,10.53
2023-01-27T20:21:25.033Z,10.90
2023-01-27T20:23:51.705Z,10.00
2023-01-27T20:26:20.372Z,10.77
2023-01-27T20:28:47.773Z,47.87
2023-01-27T20:31:18.396Z,14.70
2023-01-27T20:33:45.058Z,10.00
2023-01-27T20:36:13.316Z,10.30
2023-01-27T20:38:40.629Z,9.63
2023-01-27T20:41:07.581Z,12.07
2023-01-27T20:43:35.420Z,12.07
2023-01-27T20:46:03.983Z,10.57
2023-01-27T20:48:30.336Z,11.27
2023-01-27T20:51:00.619Z,11.40
2023-01-27T20:53:31.369Z,10.13
2023-01-27T20:55:58.726Z,9.50
2023-01-27T20:58:25.505Z,9.23
2023-01-27T21:00:51.831Z,8.67
2023-01-27T21:03:18.398Z,9.93
2023-01-27T21:05:45.742Z,7.67
2023-01-27T21:08:12.215Z,7.43
2023-01-27T21:10:38.536Z,7.43
2023-01-27T21:13:04.995Z,8.30
2023-01-27T21:15:31.319Z,9.03
2023-01-27T21:17:57.648Z,7.57
2023-01-27T21:20:23.954Z,5.23
2023-01-27T21:22:50.220Z,4.63
2023-01-27T21:25:16.867Z,4.77
2023-01-27T21:27:44.899Z,5.73
2023-01-27T21:30:12.365Z,5.43
2023-01-27T21:32:38.609Z,7.37
2023-01-27T21:35:05.035Z,5.43
2023-01-27T21:37:31.349Z,4.70
2023-01-27T21:39:57.636Z,5.17
2023-01-27T21:42:42.688Z,7.17
2023-01-27T21:45:12.417Z,4.60
2023-01-27T21:47:38.889Z,5.90
2023-01-27T21:50:06.179Z,5.30
2023-01-27T21:52:35.549Z,4.50
2023-01-27T21:55:05.397Z,5.10
2023-01-27T21:57:32.046Z,6.60
2023-01-27T21:59:58.353Z,4.53
2023-01-27T22:02:24.698Z,4.63
2023-01-27T22:04:51.037Z,4.87
2023-01-27T22:07:17.874Z,4.90
2023-01-27T22:09:44.169Z,4.53
2023-01-27T22:12:11.795Z,4.70
2023-01-27T22:14:38.115Z,4.93
2023-01-27T22:17:04.708Z,4.53
2023-01-27T22:19:31.089Z,5.10
2023-01-27T22:21:57.545Z,5.80
2023-01-27T22:24:24.414Z,5.07
2023-01-27T22:26:51.095Z,7.10
2023-01-27T22:29:17.479Z,5.80
2023-01-27T22:31:43.780Z,5.00
2023-01-27T22:34:10.069Z,4.90
2023-01-27T22:36:36.699Z,5.10
2023-01-27T22:39:03.986Z,6.70
2023-01-27T22:41:30.591Z,5.63
2023-01-27T22:43:57.272Z,5.90
2023-01-27T22:46:23.678Z,6.47
2023-01-27T22:48:50.262Z,6.67
2023-01-27T22:51:16.824Z,6.00
2023-01-27T22:53:43.235Z,6.30
2023-01-27T22:56:09.596Z,6.63
2023-01-27T22:58:35.904Z,5.53
2023-01-27T23:01:05.649Z,6.17
2023-01-27T23:03:31.993Z,6.93
2023-01-27T23:05:58.315Z,5.70
2023-01-27T23:08:24.613Z,6.17
2023-01-27T23:10:50.882Z,6.37
2023-01-27T23:13:17.126Z,4.60
2023-01-27T23:15:43.378Z,4.73
2023-01-27T23:18:12.697Z,5.33
2023-01-27T23:20:39.784Z,4.73
2023-01-27T23:23:06.531Z,6.37
2023-01-27T23:25:33.631Z,5.10
2023-01-27T23:27:59.977Z,6.47
2023-01-27T23:30:26.665Z,5.20
2023-01-27T23:32:57.095Z,5.43
2023-01-27T23:35:23.652Z,4.47
2023-01-27T23:37:49.997Z,5.43
2023-01-27T23:40:16.383Z,5.30
2023-01-27T23:42:42.691Z,5.00
2023-01-27T23:45:09.133Z,4.50
2023-01-27T23:47:35.387Z,5.20
2023-01-27T23:50:01.753Z,5.33
2023-01-27T23:52:28.035Z,5.20
2023-01-27T23:54:54.297Z,5.57
2023-01-27T23:57:20.637Z,5.23
2023-01-27T23:59:46.970Z,5.77
